Time;durP1;ratioP1;P1;durP2;ratioP2;P2;SDS_P1;SDS_P2;PMS_P1;PMS_P2;Temp;Humidity;BMP_temperature;BMP_pressure;BME280_temperature;BME280_humidity;BME280_pressure;Samples;Min_cycle;Max_cycle;Signal;HPM_P1;HPM_P2
2022/04/09 00:00:11;;;;;;;10.47;2.17;;;2.60;99.90;;;;;;5132285;27;20476;-36
2022/04/09 00:02:37;;;;;;;8.87;2.20;;;2.50;99.90;;;;;;5117935;27;20480;-35
2022/04/09 00:05:03;;;;;;;11.50;2.63;;;2.50;99.90;;;;;;5132440;27;20047;-36
2022/04/09 00:07:29;;;;;;;12.73;3.33;;;2.40;99.90;;;;;;5099170;28;20055;-36
2022/04/09 00:09:55;;;;;;;14.57;2.53;;;2.40;99.90;;;;;;5099783;28;20487;-36
2022/04/09 00:12:21;;;;;;;15.07;3.30;;;2.40;99.90;;;;;;5081698;28;20614;-35
2022/04/09 00:14:46;;;;;;;16.03;1.90;;;2.50;99.90;;;;;;5110003;27;20055;-36
2022/04/09 00:17:12;;;;;;;11.40;2.27;;;2.60;99.90;;;;;;5117354;27;20084;-36
2022/04/09 00:19:38;;;;;;;13.57;2.90;;;2.80;1.00;;;;;;5098985;28;20044;-36
2022/04/09 00:22:04;;;;;;;12.07;2.47;;;3.00;1.00;;;;;;5117820;27;20083;-37
2022/04/09 00:24:30;;;;;;;13.85;2.88;;;3.10;1.00;;;;;;5135977;27;20051;-37
2022/04/09 00:26:55;;;;;;;14.13;2.17;;;3.10;1.00;;;;;;5137846;27;20064;-37
2022/04/09 00:29:21;;;;;;;8.85;2.30;;;3.10;1.00;;;;;;5117170;27;20047;-38
2022/04/09 00:31:47;;;;;;;14.82;1.80;;;3.30;1.00;;;;;;5136891;27;20043;-34
2022/04/09 00:34:13;;;;;;;9.18;1.30;;;3.50;99.90;;;;;;5134521;27;20114;-34
2022/04/09 00:36:39;;;;;;;4.90;1.60;;;3.80;99.90;;;;;;5136531;27;20130;-35
2022/04/09 00:39:05;;;;;;;6.68;0.90;;;3.80;91.40;;;;;;5101343;27;20047;-35
2022/04/09 00:41:30;;;;;;;12.17;1.30;;;3.70;1.00;;;;;;5136211;27;20071;-34
2022/04/09 00:43:56;;;;;;;7.25;0.95;;;3.60;1.00;;;;;;5136000;27;20063;-35
2022/04/09 00:46:22;;;;;;;3.65;0.55;;;3.60;1.00;;;;;;5136893;27;20085;-35
2022/04/09 00:48:48;;;;;;;6.60;0.90;;;3.50;1.00;;;;;;5135355;27;20043;-35
2022/04/09 00:51:14;;;;;;;6.03;0.70;;;3.50;1.00;;;;;;5119531;27;20047;-35
2022/04/09 00:53:42;;;;;;;5.43;1.08;;;3.40;99.90;;;;;;5098086;28;20419;-34
2022/04/09 00:56:13;;;;;;;7.88;0.88;;;3.30;99.90;;;;;;5116193;28;20043;-35
2022/04/09 00:58:47;;;;;;;6.68;1.10;;;3.20;99.90;;;;;;5117282;27;20054;-36
2022/04/09 01:01:13;;;;;;;9.18;1.13;;;3.10;99.90;;;;;;5116959;28;20052;-35
2022/04/09 01:03:39;;;;;;;12.00;2.20;;;3.10;1.00;;;;;;5098275;28;20039;-36
2022/04/09 01:06:09;;;;;;;11.65;1.80;;;3.00;1.00;;;;;;5132553;27;20039;-35
2022/04/09 01:08:36;;;;;;;10.75;1.40;;;3.00;1.00;;;;;;5136543;27;20104;-35
2022/04/09 01:11:01;;;;;;;5.75;0.85;;;2.90;1.00;;;;;;5136653;27;20442;-35
2022/04/09 01:13:28;;;;;;;11.00;2.47;;;2.90;8.90;;;;;;5083841;28;20052;-36
2022/04/09 01:15:54;;;;;;;9.90;1.23;;;2.80;96.40;;;;;;5116127;28;20054;-35
2022/04/09 01:18:20;;;;;;;9.10;1.38;;;2.80;99.90;;;;;;5098151;28;20377;-34
2022/04/09 01:20:46;;;;;;;12.20;1.38;;;2.80;99.90;;;;;;5111296;27;20053;-35
2022/04/09 01:23:11;;;;;;;10.02;1.75;;;2.80;99.90;;;;;;5136152;27;20047;-34
2022/04/09 01:25:40;;;;;;;9.60;1.70;;;2.70;99.90;;;;;;5135833;27;20047;-35
2022/04/09 01:28:06;;;;;;;9.48;1.10;;;2.60;99.90;;;;;;5134396;27;20480;-36
2022/04/09 01:30:32;;;;;;;12.20;1.53;;;2.30;99.90;;;;;;5117516;27;20135;-35
2022/04/09 01:32:58;;;;;;;10.57;1.20;;;2.10;75.00;;;;;;5117902;27;20071;-34
2022/04/09 01:35:23;;;;;;;7.68;1.15;;;1.80;73.10;;;;;;5105882;28;20396;-35
2022/04/09 01:37:49;;;;;;;13.40;2.50;;;1.60;91.50;;;;;;5098293;28;20082;-36
2022/04/09 01:40:15;;;;;;;6.50;1.43;;;1.50;99.90;;;;;;5122120;27;20480;-35
2022/04/09 01:42:40;;;;;;;11.00;1.67;;;1.40;99.90;;;;;;5080189;28;20042;-36
2022/04/09 01:45:07;;;;;;;11.37;1.60;;;1.40;99.90;;;;;;5079837;28;20184;-35
2022/04/09 01:47:34;;;;;;;10.40;1.70;;;1.50;99.90;;;;;;5103653;27;20046;-35
2022/04/09 01:50:00;;;;;;;12.20;2.03;;;1.70;99.90;;;;;;5135705;27;20039;-36
2022/04/09 01:52:26;;;;;;;18.10;1.80;;;1.80;1.00;;;;;;5083472;27;20039;-35
2022/04/09 01:54:51;;;;;;;10.67;2.40;;;2.10;1.00;;;;;;5133776;27;20088;-35
2022/04/09 01:57:17;;;;;;;9.60;2.57;;;2.30;1.00;;;;;;5136075;27;20050;-35
2022/04/09 01:59:44;;;;;;;12.53;1.87;;;2.40;1.00;;;;;;5135535;27;20054;-35
2022/04/09 02:02:10;;;;;;;11.23;2.30;;;2.50;1.00;;;;;;5095175;28;20085;-35
2022/04/09 02:04:36;;;;;;;10.60;1.40;;;2.40;1.00;;;;;;5122740;27;20038;-35
2022/04/09 02:07:02;;;;;;;11.17;0.93;;;2.10;99.90;;;;;;5118530;27;20501;-34
2022/04/09 02:09:29;;;;;;;13.40;1.83;;;1.90;99.90;;;;;;5101883;27;20041;-34
2022/04/09 02:11:54;;;;;;;17.73;3.37;;;1.80;99.90;;;;;;5099996;27;20404;-34
2022/04/09 02:14:20;;;;;;;13.20;2.37;;;1.80;99.90;;;;;;5114338;28;20051;-34
2022/04/09 02:16:46;;;;;;;19.07;2.10;;;1.70;99.90;;;;;;5113587;28;20059;-34
2022/04/09 02:19:12;;;;;;;13.83;1.80;;;1.80;1.00;;;;;;5112822;28;20057;-34
2022/04/09 02:21:38;;;;;;;11.73;1.63;;;1.90;1.00;;;;;;5113507;28;20139;-34
2022/04/09 02:24:04;;;;;;;14.67;2.00;;;2.10;1.00;;;;;;5113779;28;20040;-34
2022/04/09 02:26:29;;;;;;;8.03;1.63;;;2.10;1.00;;;;;;5115041;28;20100;-35
2022/04/09 02:28:56;;;;;;;13.70;2.63;;;2.20;1.00;;;;;;5113222;28;20035;-35
2022/04/09 02:31:22;;;;;;;11.40;3.13;;;2.30;1.00;;;;;;5115004;28;20086;-34
2022/04/09 02:33:48;;;;;;;14.03;1.80;;;2.40;1.00;;;;;;5112662;28;20050;-34
2022/04/09 02:36:15;;;;;;;11.20;1.50;;;2.50;1.00;;;;;;5112532;28;20185;-34
2022/04/09 02:38:42;;;;;;;14.43;2.13;;;2.40;1.00;;;;;;5114315;28;20044;-33
2022/04/09 02:41:09;;;;;;;13.80;1.93;;;2.40;1.00;;;;;;5113877;28;20465;-34
2022/04/09 02:43:40;;;;;;;10.97;1.50;;;2.50;1.00;;;;;;5089196;28;20397;-34
2022/04/09 02:46:06;;;;;;;6.63;1.20;;;2.50;1.00;;;;;;5094485;28;20052;-33
2022/04/09 02:48:31;;;;;;;11.93;1.40;;;2.40;1.00;;;;;;5093822;28;20473;-34
2022/04/09 02:50:57;;;;;;;14.15;1.80;;;2.40;99.90;;;;;;5109365;28;20071;-34
2022/04/09 02:53:23;;;;;;;12.48;1.55;;;2.50;99.90;;;;;;5114164;28;20568;-33
2022/04/09 02:55:49;;;;;;;9.73;1.70;;;2.40;99.90;;;;;;5114136;28;20058;-33
2022/04/09 02:58:15;;;;;;;8.33;1.60;;;2.60;1.00;;;;;;5111864;28;20123;-33
2022/04/09 03:00:41;;;;;;;4.88;0.63;;;2.80;1.00;;;;;;5114705;28;20412;-33
2022/04/09 03:03:07;;;;;;;7.63;0.57;;;2.90;22.00;;;;;;5114004;28;20036;-32
2022/04/09 03:05:33;;;;;;;10.75;0.98;;;3.00;1.00;;;;;;5099931;28;20408;-33
2022/04/09 03:07:59;;;;;;;5.30;0.80;;;2.80;1.00;;;;;;5094474;28;20048;-33
2022/04/09 03:10:25;;;;;;;6.80;1.10;;;2.70;1.00;;;;;;5092694;28;20047;-41
2022/04/09 03:12:50;;;;;;;4.95;0.80;;;2.60;1.00;;;;;;5119052;28;20695;-42
2022/04/09 03:15:16;;;;;;;6.67;1.30;;;2.40;1.00;;;;;;5134464;28;20476;-42
2022/04/09 03:17:42;;;;;;;13.00;1.57;;;2.40;1.00;;;;;;5116154;28;20079;-42
2022/04/09 03:20:09;;;;;;;7.63;1.67;;;2.40;1.00;;;;;;5106865;28;20047;-43
2022/04/09 03:22:35;;;;;;;8.85;1.33;;;2.30;1.00;;;;;;5122547;28;20069;-42
2022/04/09 03:25:02;;;;;;;7.50;1.90;;;2.30;1.00;;;;;;5134738;28;20051;-43
2022/04/09 03:27:28;;;;;;;16.73;1.87;;;1.90;1.00;;;;;;5097598;28;20056;-41
2022/04/09 03:29:54;;;;;;;7.03;1.40;;;1.70;1.00;;;;;;5116070;28;20046;-42
2022/04/09 03:32:21;;;;;;;10.40;1.20;;;1.50;1.00;;;;;;5117081;28;20134;-43
2022/04/09 03:34:47;;;;;;;11.20;1.83;;;1.20;1.00;;;;;;5109682;28;20159;-41
2022/04/09 03:37:13;;;;;;;6.50;1.20;;;1.00;1.00;;;;;;5117265;28;20083;-42
2022/04/09 03:39:41;;;;;;;11.90;1.40;;;1.00;18.70;;;;;;5099735;28;20081;-39
2022/04/09 03:42:08;;;;;;;14.73;1.43;;;1.20;99.90;;;;;;5111773;27;20118;-42
2022/04/09 03:44:33;;;;;;;10.60;1.57;;;1.50;99.90;;;;;;5138243;27;20047;-42
2022/04/09 03:47:00;;;;;;;6.90;1.30;;;1.70;1.00;;;;;;5138142;27;20126;-41
2022/04/09 03:49:26;;;;;;;8.60;1.40;;;1.80;1.00;;;;;;5116580;27;20054;-42
2022/04/09 03:51:52;;;;;;;5.40;1.90;;;1.70;1.00;;;;;;5126584;27;20043;-43
2022/04/09 03:54:18;;;;;;;6.60;1.10;;;1.80;1.00;;;;;;5099424;27;20130;-43
2022/04/09 03:56:43;;;;;;;10.57;1.40;;;1.90;1.00;;;;;;5138226;27;20039;-43
2022/04/09 03:59:09;;;;;;;15.73;2.40;;;1.90;1.00;;;;;;5101418;27;20043;-41
2022/04/09 04:01:36;;;;;;;12.45;2.20;;;1.90;1.00;;;;;;5137782;27;20078;-42
2022/04/09 04:04:02;;;;;;;8.03;1.50;;;1.90;1.00;;;;;;5137686;27;20047;-42
2022/04/09 04:06:28;;;;;;;12.27;1.93;;;1.90;1.00;;;;;;5136507;27;20048;-43
2022/04/09 04:08:55;;;;;;;15.60;1.80;;;2.00;1.00;;;;;;5099113;28;20040;-43
2022/04/09 04:11:22;;;;;;;16.65;1.50;;;2.30;16.40;;;;;;5117078;28;20055;-44
2022/04/09 04:13:48;;;;;;;13.07;1.10;;;2.30;1.00;;;;;;5118213;27;20057;-43
2022/04/09 04:16:15;;;;;;;6.95;1.13;;;2.20;1.00;;;;;;5117521;28;20042;-42
2022/04/09 04:18:42;;;;;;;12.83;1.70;;;2.00;1.00;;;;;;5117140;27;20044;-43
2022/04/09 04:21:08;;;;;;;14.13;2.17;;;1.90;1.00;;;;;;5134307;27;20078;-43
2022/04/09 04:23:34;;;;;;;9.30;1.63;;;1.90;1.00;;;;;;5102253;27;20043;-42
2022/04/09 04:26:00;;;;;;;7.85;1.20;;;1.90;1.00;;;;;;5137331;27;20043;-43
2022/04/09 04:28:26;;;;;;;10.67;1.40;;;1.80;1.00;;;;;;5136097;27;20092;-42
2022/04/09 04:30:51;;;;;;;13.13;1.73;;;1.60;1.00;;;;;;5119844;27;20080;-42
2022/04/09 04:33:17;;;;;;;7.40;1.57;;;1.50;1.00;;;;;;5098670;28;20047;-42
2022/04/09 04:35:43;;;;;;;12.23;2.63;;;1.40;1.00;;;;;;5116192;28;20044;-43
2022/04/09 04:38:09;;;;;;;16.13;2.00;;;1.20;1.00;;;;;;5116948;28;20048;-42
2022/04/09 04:40:34;;;;;;;11.43;2.37;;;1.10;1.00;;;;;;5110559;27;20071;-42
2022/04/09 04:43:00;;;;;;;15.13;2.20;;;1.10;1.00;;;;;;5118676;27;20039;-42
2022/04/09 04:45:26;;;;;;;10.07;1.60;;;1.00;1.00;;;;;;5090173;28;20126;-41
2022/04/09 04:47:52;;;;;;;9.77;1.90;;;0.90;1.00;;;;;;5098382;28;20047;-41
2022/04/09 04:50:19;;;;;;;13.90;1.50;;;0.80;1.00;;;;;;5116303;28;20173;-42
2022/04/09 04:52:44;;;;;;;10.30;1.40;;;0.70;1.00;;;;;;5122299;27;20062;-42
2022/04/09 04:55:11;;;;;;;9.50;1.57;;;0.60;1.00;;;;;;5116338;27;20493;-42
2022/04/09 04:57:44;;;;;;;10.23;1.40;;;0.60;1.00;;;;;;5116194;28;20058;-42
2022/04/09 05:00:11;;;;;;;13.73;2.30;;;0.60;1.00;;;;;;5117299;27;20118;-41
2022/04/09 05:02:37;;;;;;;8.67;1.80;;;0.60;1.00;;;;;;5116532;28;20040;-42
2022/04/09 05:05:04;;;;;;;15.63;1.80;;;0.70;1.00;;;;;;5098019;28;20127;-42
2022/04/09 05:07:43;;;;;;;5.27;1.07;;;0.90;1.00;;;;;;5123184;27;20392;-43
2022/04/09 05:10:14;;;;;;;16.33;1.97;;;1.10;11.70;;;;;;5136416;27;20051;-43
2022/04/09 05:12:41;;;;;;;17.03;2.23;;;1.30;64.10;;;;;;5097597;28;20523;-42
2022/04/09 05:15:08;;;;;;;9.10;1.87;;;1.50;93.70;;;;;;5102215;28;20044;-41
2022/04/09 05:17:34;;;;;;;6.33;1.30;;;1.60;99.90;;;;;;5094393;28;20050;-44
2022/04/09 05:20:02;;;;;;;14.60;1.70;;;1.70;99.90;;;;;;5094287;28;20393;-43
2022/04/09 05:22:28;;;;;;;11.77;1.97;;;1.80;99.90;;;;;;5105521;28;20043;-42
2022/04/09 05:24:55;;;;;;;13.40;2.92;;;1.90;99.90;;;;;;5115580;28;20476;-43
2022/04/09 05:27:21;;;;;;;8.97;1.50;;;2.20;99.90;;;;;;5112353;28;20098;-44
2022/04/09 05:29:47;;;;;;;11.03;1.80;;;2.50;99.90;;;;;;5113770;28;20043;-43
2022/04/09 05:32:13;;;;;;;12.73;1.30;;;2.60;71.00;;;;;;5114242;28;20049;-43
2022/04/09 05:34:39;;;;;;;8.80;1.30;;;2.70;1.00;;;;;;5115308;28;20074;-43
2022/04/09 05:37:05;;;;;;;10.50;2.83;;;2.80;1.00;;;;;;5113893;28;20082;-44
2022/04/09 05:39:31;;;;;;;8.13;1.83;;;2.90;1.00;;;;;;5089818;28;20059;-43
2022/04/09 05:41:57;;;;;;;11.10;1.88;;;3.00;1.00;;;;;;5105883;28;20036;-44
2022/04/09 05:44:22;;;;;;;13.50;1.55;;;3.00;99.90;;;;;;5096966;28;20127;-44
2022/04/09 05:46:48;;;;;;;14.25;1.48;;;3.00;99.90;;;;;;5115762;28;20043;-44
2022/04/09 05:49:14;;;;;;;12.60;2.75;;;2.80;99.90;;;;;;5113351;28;20389;-43
2022/04/09 05:51:39;;;;;;;14.10;1.92;;;2.70;99.90;;;;;;5094671;28;20048;-42
2022/04/09 05:54:05;;;;;;;10.73;2.27;;;2.60;99.90;;;;;;5096039;28;20046;-42
2022/04/09 05:56:31;;;;;;;14.70;1.87;;;2.60;99.90;;;;;;5113456;28;20538;-43
2022/04/09 05:58:58;;;;;;;9.93;1.42;;;2.60;99.90;;;;;;5112537;28;20040;-42
2022/04/09 06:01:24;;;;;;;13.10;2.27;;;2.70;99.90;;;;;;5114975;28;20044;-42
2022/04/09 06:03:49;;;;;;;9.90;1.40;;;2.90;1.00;;;;;;5112842;28;20082;-44
2022/04/09 06:06:15;;;;;;;13.88;2.08;;;3.00;1.00;;;;;;5107669;28;20048;-44
2022/04/09 06:08:41;;;;;;;14.20;1.83;;;3.20;1.00;;;;;;5114855;28;20070;-43
2022/04/09 06:11:08;;;;;;;15.55;2.20;;;3.20;99.90;;;;;;5114435;28;20114;-42
2022/04/09 06:13:33;;;;;;;16.88;2.30;;;3.20;99.90;;;;;;5111467;28;20162;-43
2022/04/09 06:16:00;;;;;;;15.32;2.25;;;3.50;99.90;;;;;;5115209;28;20083;-43
2022/04/09 06:18:26;;;;;;;18.35;3.72;;;3.80;1.00;;;;;;5113653;28;20092;-43
2022/04/09 06:20:52;;;;;;;19.58;3.05;;;4.00;99.90;;;;;;5099074;28;20043;-43
2022/04/09 06:23:17;;;;;;;14.30;3.28;;;4.20;99.90;;;;;;5076084;28;20044;-42
2022/04/09 06:25:43;;;;;;;11.82;1.75;;;4.30;99.90;;;;;;5092788;28;20124;-43
2022/04/09 06:28:09;;;;;;;10.13;1.42;;;4.30;1.00;;;;;;5111282;28;20048;-43
2022/04/09 06:30:35;;;;;;;19.27;2.38;;;4.60;1.00;;;;;;5106860;28;20563;-43
2022/04/09 06:33:00;;;;;;;14.00;2.10;;;4.70;1.00;;;;;;5094816;28;20040;-43
2022/04/09 06:35:27;;;;;;;10.88;2.13;;;4.70;99.90;;;;;;5093796;28;20500;-43
2022/04/09 06:37:52;;;;;;;11.35;2.53;;;4.60;99.90;;;;;;5105269;28;20404;-42
2022/04/09 06:40:18;;;;;;;13.07;2.10;;;4.50;99.90;;;;;;5114313;28;20040;-41
2022/04/09 06:42:44;;;;;;;11.50;2.78;;;4.50;99.90;;;;;;5081126;28;20044;-42
2022/04/09 06:45:10;;;;;;;11.07;1.60;;;4.60;99.90;;;;;;5092590;28;20048;-41
2022/04/09 06:47:38;;;;;;;9.85;1.77;;;4.60;99.90;;;;;;5100125;28;20088;-42
2022/04/09 06:50:09;;;;;;;11.90;1.70;;;4.70;99.90;;;;;;5113498;28;20056;-40
2022/04/09 06:52:35;;;;;;;11.55;1.90;;;4.90;99.90;;;;;;5113762;28;20083;-40
2022/04/09 06:55:02;;;;;;;16.38;1.92;;;5.10;99.90;;;;;;5111353;28;20067;-42
2022/04/09 06:57:28;;;;;;;10.55;2.08;;;5.40;1.00;;;;;;5114154;28;20043;-41
2022/04/09 06:59:59;;;;;;;11.25;1.85;;;5.80;99.90;;;;;;5114052;28;20058;-44
2022/04/09 07:02:24;;;;;;;11.07;1.67;;;6.00;1.00;;;;;;5113904;28;20036;-43
2022/04/09 07:04:51;;;;;;;10.48;1.85;;;6.00;1.00;;;;;;5106342;28;20050;-43
2022/04/09 07:07:27;;;;;;;11.73;2.05;;;5.90;1.00;;;;;;5092389;28;20044;-42
2022/04/09 07:10:09;;;;;;;9.63;2.03;;;5.80;99.90;;;;;;5099579;28;20074;-43
2022/04/09 07:12:35;;;;;;;8.30;1.55;;;5.80;1.00;;;;;;5123458;27;20087;-42
2022/04/09 07:15:02;;;;;;;11.90;1.70;;;6.00;1.00;;;;;;5130045;27;20677;-43
2022/04/09 07:17:29;;;;;;;14.38;2.10;;;6.00;1.00;;;;;;5100382;28;20052;-42
2022/04/09 07:20:00;;;;;;;11.48;2.65;;;6.10;1.00;;;;;;5124644;27;20043;-43
2022/04/09 07:22:27;;;;;;;11.75;1.90;;;6.10;1.00;;;;;;5138501;27;20047;-43
2022/04/09 07:24:54;;;;;;;11.60;1.60;;;5.90;1.00;;;;;;5128296;27;20397;-43
2022/04/09 07:27:20;;;;;;;13.20;1.70;;;5.70;99.90;;;;;;5125552;27;20050;-43
2022/04/09 07:29:46;;;;;;;13.60;2.45;;;5.50;99.60;;;;;;5117909;28;20048;-45
2022/04/09 07:32:12;;;;;;;9.07;1.75;;;5.60;99.90;;;;;;5117760;28;20071;-44
2022/04/09 07:34:38;;;;;;;15.63;2.17;;;5.80;99.90;;;;;;5103838;27;20150;-44
2022/04/09 07:37:04;;;;;;;7.95;1.35;;;5.80;99.90;;;;;;5138218;27;20084;-44
2022/04/09 07:39:30;;;;;;;12.77;1.42;;;5.40;1.00;;;;;;5116516;27;20047;-44
2022/04/09 07:41:56;;;;;;;18.60;2.78;;;5.20;69.70;;;;;;5117549;28;20047;-44
2022/04/09 07:44:23;;;;;;;13.73;2.63;;;5.20;99.90;;;;;;5117601;28;20051;-44
2022/04/09 07:46:50;;;;;;;16.55;1.98;;;5.50;1.00;;;;;;5118613;27;20043;-45
2022/04/09 07:49:16;;;;;;;13.68;2.17;;;5.70;1.00;;;;;;5137032;27;20051;-45
2022/04/09 07:51:41;;;;;;;16.92;1.83;;;6.00;99.90;;;;;;5137811;27;20119;-44
2022/04/09 07:54:07;;;;;;;13.40;1.52;;;6.20;99.90;;;;;;5135964;27;20119;-44
2022/04/09 07:56:33;;;;;;;18.00;3.22;;;6.40;99.90;;;;;;5137682;27;20047;-45
2022/04/09 07:58:59;;;;;;;12.10;2.13;;;6.60;1.00;;;;;;5100705;27;20047;-45
2022/04/09 08:01:25;;;;;;;10.05;1.83;;;6.90;99.90;;;;;;5119448;27;20039;-45
2022/04/09 08:03:50;;;;;;;14.80;2.55;;;6.80;99.90;;;;;;5099030;28;20384;-44
2022/04/09 08:06:16;;;;;;;15.25;2.40;;;6.90;99.90;;;;;;5117797;28;20082;-45
2022/04/09 08:08:47;;;;;;;12.85;2.30;;;7.00;99.90;;;;;;5117798;27;20040;-45
2022/04/09 08:11:13;;;;;;;10.07;1.92;;;7.30;99.90;;;;;;5098996;28;20048;-44
2022/04/09 08:13:39;;;;;;;8.25;1.70;;;7.10;99.90;;;;;;5116590;28;20203;-44
2022/04/09 08:16:05;;;;;;;9.63;1.75;;;7.00;99.90;;;;;;5082476;28;20047;-44
2022/04/09 08:18:31;;;;;;;9.80;2.25;;;7.10;99.90;;;;;;5116830;28;20047;-44
2022/04/09 08:20:57;;;;;;;15.07;2.03;;;7.00;99.90;;;;;;5115105;27;20047;-45
2022/04/09 08:23:23;;;;;;;9.00;2.13;;;6.90;99.90;;;;;;5101189;27;20039;-45
2022/04/09 08:25:49;;;;;;;15.32;1.98;;;7.10;99.90;;;;;;5119072;27;20039;-44
2022/04/09 08:28:16;;;;;;;9.68;2.08;;;7.30;99.90;;;;;;5137750;27;20043;-45
2022/04/09 08:30:43;;;;;;;12.50;1.58;;;7.50;99.90;;;;;;5134968;27;20496;-45
2022/04/09 08:33:10;;;;;;;11.35;1.83;;;7.50;60.30;;;;;;5126470;27;20093;-44
2022/04/09 08:35:36;;;;;;;15.18;2.40;;;7.70;99.90;;;;;;5116690;28;20079;-44
2022/04/09 08:38:03;;;;;;;13.68;2.90;;;7.60;99.90;;;;;;5116436;28;20066;-45
2022/04/09 08:40:32;;;;;;;10.70;1.77;;;7.50;99.90;;;;;;5109698;27;20043;-45
2022/04/09 08:42:59;;;;;;;12.23;2.00;;;7.40;99.80;;;;;;5137011;27;20536;-44
2022/04/09 08:45:25;;;;;;;10.43;2.25;;;7.50;96.30;;;;;;5116900;27;20051;-44
2022/04/09 08:47:52;;;;;;;6.97;1.40;;;7.20;4.80;;;;;;5136796;27;20035;-44
2022/04/09 08:50:19;;;;;;;4.30;0.63;;;6.20;40.20;;;;;;5119242;27;20035;-44
2022/04/09 08:52:45;;;;;;;6.50;1.00;;;5.20;99.90;;;;;;5128192;27;20046;-45
2022/04/09 08:55:13;;;;;;;7.38;1.55;;;4.70;99.90;;;;;;5098027;28;20471;-45
2022/04/09 08:57:40;;;;;;;6.68;0.90;;;4.40;1.00;;;;;;5098498;28;20050;-44
2022/04/09 09:00:10;;;;;;;9.48;1.48;;;4.30;1.00;;;;;;5124664;27;20046;-44
2022/04/09 09:02:37;;;;;;;5.18;0.65;;;4.60;68.90;;;;;;5136564;27;20129;-45
2022/04/09 09:05:04;;;;;;;7.90;0.80;;;5.00;1.00;;;;;;5118307;27;20125;-44
2022/04/09 09:07:29;;;;;;;5.97;0.80;;;5.50;1.00;;;;;;5129171;27;20036;-45
2022/04/09 09:10:15;;;;;;;7.45;0.80;;;5.60;99.90;;;;;;5115850;28;20043;-44
2022/04/09 09:12:41;;;;;;;6.85;0.90;;;6.20;99.90;;;;;;5094033;28;20048;-45
2022/04/09 09:15:07;;;;;;;8.18;0.82;;;6.90;99.90;;;;;;5097663;28;20127;-45
2022/04/09 09:17:33;;;;;;;12.13;0.93;;;7.40;99.90;;;;;;5110773;28;20431;-45
2022/04/09 09:20:00;;;;;;;12.38;1.90;;;7.70;67.90;;;;;;5095987;28;20043;-45
2022/04/09 09:22:38;;;;;;;15.18;1.90;;;8.10;46.90;;;;;;5094295;28;20478;-44
2022/04/09 09:25:07;;;;;;;10.75;1.83;;;8.60;92.60;;;;;;5102878;28;20446;-45
2022/04/09 09:27:33;;;;;;;14.25;2.63;;;8.90;32.00;;;;;;5115450;28;20044;-44
2022/04/09 09:29:59;;;;;;;9.48;2.25;;;9.00;1.00;;;;;;5100168;28;20119;-45
2022/04/09 09:32:26;;;;;;;10.27;2.42;;;9.20;1.00;;;;;;5100379;28;20082;-42
2022/04/09 09:35:01;;;;;;;11.95;2.30;;;8.20;1.00;;;;;;5099892;28;20494;-35
2022/04/09 09:37:29;;;;;;;13.55;2.10;;;6.50;99.90;;;;;;5105380;28;20485;-36
2022/04/09 09:39:55;;;;;;;10.27;1.35;;;5.60;99.90;;;;;;5107751;28;20413;-35
2022/04/09 09:42:25;;;;;;;8.80;1.45;;;5.20;99.90;;;;;;5093767;28;20044;-39
2022/04/09 09:44:51;;;;;;;6.70;1.05;;;5.10;1.00;;;;;;5097363;28;20122;-36
2022/04/09 09:47:18;;;;;;;2.85;0.30;;;5.30;1.00;;;;;;5099901;28;20129;-41
2022/04/09 09:49:58;;;;;;;2.03;0.43;;;5.70;1.00;;;;;;5113368;28;20048;-38
2022/04/09 09:52:32;;;;;;;1.08;0.30;;;6.10;1.00;;;;;;5114474;28;20043;-39
2022/04/09 09:55:10;;;;;;;3.88;0.13;;;5.90;99.90;;;;;;5111790;28;20169;-41
2022/04/09 09:57:38;;;;;;;1.25;0.20;;;6.20;1.00;;;;;;5113913;28;20126;-39
2022/04/09 10:00:11;;;;;;;1.02;0.20;;;6.60;99.90;;;;;;5114527;28;20044;-38
2022/04/09 10:02:37;;;;;;;;;;;6.50;99.90;;;;;;5115166;28;20047;-40
2022/04/09 10:05:04;;;;;;;1.40;0.38;;;6.40;99.90;;;;;;5113055;28;19970;-42
2022/04/09 10:07:30;;;;;;;1.30;0.30;;;6.50;99.90;;;;;;5113705;28;20058;-42
2022/04/09 10:10:00;;;;;;;1.42;0.50;;;7.00;99.90;;;;;;5114729;28;20044;-42
2022/04/09 10:12:26;;;;;;;10.38;1.83;;;7.30;99.90;;;;;;5116913;27;20040;-43
2022/04/09 10:14:59;;;;;;;9.65;1.55;;;7.70;99.90;;;;;;5128436;27;20131;-42
2022/04/09 10:17:27;;;;;;;7.55;1.95;;;7.70;1.00;;;;;;5114605;28;20090;-43
2022/04/09 10:19:55;;;;;;;9.25;1.20;;;7.90;59.80;;;;;;5114535;28;20047;-44
2022/04/09 10:22:27;;;;;;;7.50;1.67;;;7.90;1.00;;;;;;5114396;28;20457;-43
2022/04/09 10:24:55;;;;;;;8.45;1.38;;;7.80;1.00;;;;;;5115202;27;20492;-44
2022/04/09 10:27:42;;;;;;;5.68;1.10;;;7.90;38.50;;;;;;5097276;28;20051;-43
2022/04/09 10:30:14;;;;;;;4.70;1.17;;;7.50;1.00;;;;;;5129869;27;20058;-43
2022/04/09 10:32:40;;;;;;;2.85;0.50;;;7.40;1.00;;;;;;5115348;27;20480;-40
2022/04/09 10:35:21;;;;;;;6.25;1.50;;;7.40;1.00;;;;;;5116463;27;20112;-43
2022/04/09 10:38:15;;;;;;;6.28;0.88;;;6.90;76.20;;;;;;5096808;28;20043;-44
2022/04/09 10:40:50;;;;;;;;;;;7.20;99.90;;;;;;5097379;28;20394;-44
2022/04/09 10:43:22;;;;;;;5.88;0.75;;;7.80;1.00;;;;;;5127841;27;19919;-44
2022/04/09 10:46:04;;;;;;;10.07;1.20;;;8.30;37.40;;;;;;5134398;27;20050;-44
2022/04/09 10:48:34;;;;;;;11.35;1.75;;;8.30;1.00;;;;;;5132900;27;20171;-44
2022/04/09 10:51:04;;;;;;;8.20;1.17;;;8.50;1.00;;;;;;5116558;27;20070;-44
2022/04/09 10:53:50;;;;;;;7.05;0.98;;;8.80;1.00;;;;;;5129658;27;20119;-44
2022/04/09 10:56:26;;;;;;;8.25;1.45;;;9.10;1.00;;;;;;5134980;27;20402;-44
2022/04/09 10:59:29;;;;;;;7.53;1.13;;;9.30;1.00;;;;;;5115133;28;20051;-44
2022/04/09 11:01:55;;;;;;;9.38;1.52;;;9.70;1.00;;;;;;5131722;28;20449;-44
2022/04/09 11:04:32;;;;;;;10.95;2.15;;;9.50;1.00;;;;;;5132609;28;20046;-44
2022/04/09 11:07:23;;;;;;;11.05;1.67;;;8.80;1.00;;;;;;5134438;28;20085;-44
2022/04/09 11:09:59;;;;;;;9.13;1.73;;;8.00;1.00;;;;;;5132522;28;20466;-44
2022/04/09 11:12:38;;;;;;;10.27;1.05;;;7.60;23.20;;;;;;5133876;28;20043;-43
2022/04/09 11:15:17;;;;;;;9.05;1.20;;;7.20;1.00;;;;;;5126006;28;20083;-44
2022/04/09 11:17:48;;;;;;;8.75;1.35;;;7.40;93.50;;;;;;5114458;28;20133;-44
2022/04/09 11:20:15;;;;;;;6.20;1.60;;;7.70;82.70;;;;;;5114702;28;20064;-44
2022/04/09 11:22:41;;;;;;;6.63;1.10;;;8.70;17.90;;;;;;5114761;28;20126;-44
2022/04/09 11:25:22;;;;;;;5.55;1.00;;;8.60;1.00;;;;;;5113755;28;20105;-44
2022/04/09 11:27:48;;;;;;;12.77;1.27;;;8.10;1.00;;;;;;5096583;28;20043;-43
2022/04/09 11:30:15;;;;;;;6.80;1.15;;;7.70;1.00;;;;;;5096622;28;20059;-44
2022/04/09 11:32:41;;;;;;;8.32;1.58;;;8.40;32.90;;;;;;5113730;28;20514;-44
2022/04/09 11:35:10;;;;;;;7.32;1.60;;;9.10;1.00;;;;;;5095491;28;20052;-44
2022/04/09 11:37:45;;;;;;;10.65;2.17;;;9.40;1.00;;;;;;5097196;28;20043;-44
2022/04/09 11:40:13;;;;;;;10.05;1.70;;;9.50;1.00;;;;;;5113695;28;20039;-44
2022/04/09 11:42:47;;;;;;;7.03;1.42;;;8.80;1.00;;;;;;5130011;28;20045;-44
2022/04/09 11:45:31;;;;;;;8.05;1.02;;;8.00;1.00;;;;;;5134203;28;20035;-44
2022/04/09 11:48:02;;;;;;;5.35;1.02;;;7.40;1.00;;;;;;5114081;28;20042;-44
2022/04/09 11:50:33;;;;;;;6.50;0.88;;;7.00;52.00;;;;;;5134143;28;20130;-44
2022/04/09 11:53:20;;;;;;;3.72;0.82;;;7.50;92.10;;;;;;5134367;28;20473;-44
2022/04/09 11:55:46;;;;;;;6.57;1.20;;;8.60;1.00;;;;;;5114823;28;20442;-43
2022/04/09 11:58:14;;;;;;;5.65;0.80;;;8.80;1.00;;;;;;5117126;27;20066;-44
2022/04/09 12:00:42;;;;;;;4.20;0.40;;;8.60;1.00;;;;;;5117002;27;20043;-44
2022/04/09 12:03:09;;;;;;;3.75;0.73;;;8.90;1.00;;;;;;5137745;27;20404;-44
2022/04/09 12:05:36;;;;;;;7.18;1.15;;;9.10;1.00;;;;;;5135579;27;20606;-44
2022/04/09 12:08:02;;;;;;;12.35;1.00;;;8.90;1.00;;;;;;5137651;27;20058;-44
2022/04/09 12:10:29;;;;;;;3.53;1.00;;;9.00;1.00;;;;;;5117488;27;20039;-44
2022/04/09 12:13:00;;;;;;;7.38;1.73;;;9.40;1.00;;;;;;5137987;27;20050;-44
2022/04/09 12:15:34;;;;;;;3.58;0.80;;;8.90;1.00;;;;;;5137548;27;20080;-44
2022/04/09 12:18:01;;;;;;;7.60;1.00;;;9.00;1.00;;;;;;5137591;27;20047;-44
2022/04/09 12:20:34;;;;;;;6.55;1.23;;;8.70;1.00;;;;;;5122954;27;20044;-44
2022/04/09 12:23:00;;;;;;;5.53;0.77;;;8.40;1.00;;;;;;5117992;27;20044;-44
2022/04/09 12:25:42;;;;;;;5.13;0.82;;;8.40;1.00;;;;;;5116876;28;20047;-44
2022/04/09 12:28:22;;;;;;;3.40;0.77;;;8.50;99.90;;;;;;5098633;28;20051;-43
2022/04/09 12:30:49;;;;;;;10.25;0.98;;;8.20;1.00;;;;;;5134209;27;20111;-44
2022/04/09 12:33:15;;;;;;;7.80;1.38;;;8.20;45.10;;;;;;5114937;28;20048;-44
2022/04/09 12:35:42;;;;;;;5.28;1.17;;;8.20;1.00;;;;;;5081789;28;20126;-43
2022/04/09 12:38:08;;;;;;;6.05;1.25;;;8.20;55.70;;;;;;5098312;28;20048;-43
2022/04/09 12:40:34;;;;;;;6.68;1.67;;;8.30;1.00;;;;;;5116224;28;20059;-44
2022/04/09 12:43:01;;;;;;;6.75;1.13;;;8.10;1.00;;;;;;5098087;28;20122;-44
2022/04/09 12:45:28;;;;;;;6.88;1.13;;;8.40;48.40;;;;;;5083368;28;20386;-44
2022/04/09 12:47:57;;;;;;;6.30;1.58;;;9.10;1.00;;;;;;5117265;27;20074;-43
2022/04/09 12:50:29;;;;;;;5.95;1.27;;;9.60;15.20;;;;;;5097953;28;20126;-44
2022/04/09 12:52:57;;;;;;;7.57;1.20;;;9.80;1.00;;;;;;5125726;27;20497;-44
2022/04/09 12:55:25;;;;;;;6.13;1.08;;;9.60;1.00;;;;;;5111546;28;20043;-44
2022/04/09 12:57:52;;;;;;;10.57;1.27;;;9.20;1.00;;;;;;5106851;27;20096;-44
2022/04/09 13:00:19;;;;;;;6.57;1.63;;;9.20;1.00;;;;;;5131887;27;20051;-44